createdAt,value
2022-07-30T00:00:35.476Z,98544.72
2022-07-30T00:02:37.375Z,98548.63
2022-07-30T00:04:39.126Z,98555.34
2022-07-30T00:06:40.860Z,98552.56
2022-07-30T00:08:42.410Z,98559.25
2022-07-30T00:10:44.116Z,98560.06
2022-07-30T00:12:47.517Z,98549.31
2022-07-30T00:14:49.111Z,98559.59
2022-07-30T00:16:50.794Z,98564.31
2022-07-30T00:18:52.485Z,98565.16
2022-07-30T00:20:54.500Z,98551.56
2022-07-30T00:22:58.346Z,98560.25
2022-07-30T00:24:59.949Z,98579.19
2022-07-30T00:27:02.249Z,98574.78
2022-07-30T00:29:05.617Z,98573.47
2022-07-30T00:31:07.315Z,98573.78
2022-07-30T00:33:09.125Z,98563.81
2022-07-30T00:35:10.915Z,98574.09
2022-07-30T00:37:12.783Z,98566.94
2022-07-30T00:39:14.365Z,98574.44
2022-07-30T00:41:16.270Z,98570.84
2022-07-30T00:43:18.649Z,98568.56
2022-07-30T00:45:20.817Z,98575.75
2022-07-30T00:47:22.536Z,98574.94
2022-07-30T00:49:24.760Z,98574.09
2022-07-30T00:51:26.558Z,98579.66
2022-07-30T00:53:28.170Z,98589.16
2022-07-30T00:55:29.912Z,98591.91
2022-07-30T00:57:31.536Z,98596.31
2022-07-30T00:59:33.582Z,98589.63
2022-07-30T01:01:36.015Z,98591.59
2022-07-30T01:03:37.754Z,98592.41
2022-07-30T01:05:39.209Z,98594.06
2022-07-30T01:07:40.969Z,98595.66
2022-07-30T01:09:42.579Z,98589.28
2022-07-30T01:11:49.899Z,98596.16
2022-07-30T01:13:51.541Z,98598.16
2022-07-30T01:15:53.435Z,98593.38
2022-07-30T01:17:58.505Z,98596.16
2022-07-30T01:20:15.242Z,98595.66
2022-07-30T01:22:30.926Z,98584.56
2022-07-30T01:24:40.073Z,98592.59
2022-07-30T01:26:41.792Z,98586.69
2022-07-30T01:28:48.895Z,98580.81
2022-07-30T01:30:52.548Z,98577.25
2022-07-30T01:32:56.494Z,98583.59
2022-07-30T01:34:59.836Z,98578.03
2022-07-30T01:37:03.716Z,98576.06
2022-07-30T01:39:06.935Z,98569.06
2022-07-30T01:41:09.673Z,98572.16
2022-07-30T01:43:13.100Z,98582.13
2022-07-30T01:45:17.368Z,98576.91
2022-07-30T01:47:22.421Z,98580.00
2022-07-30T01:49:25.916Z,98590.28
2022-07-30T01:51:33.517Z,98581.47
2022-07-30T01:53:41.791Z,98590.59
2022-07-30T01:55:44.240Z,98590.13
2022-07-30T01:57:48.293Z,98589.28
2022-07-30T01:59:55.060Z,98588.81
2022-07-30T02:01:56.668Z,98591.59
2022-07-30T02:04:01.393Z,98587.50
2022-07-30T02:06:09.780Z,98599.78
2022-07-30T02:08:17.006Z,98600.91
2022-07-30T02:10:41.283Z,98592.09
2022-07-30T02:12:52.549Z,98597.63
2022-07-30T02:15:14.394Z,98592.09
2022-07-30T02:17:22.719Z,98587.84
2022-07-30T02:19:42.721Z,98595.34
2022-07-30T02:21:53.065Z,98581.47
2022-07-30T02:23:56.371Z,98589.78
2022-07-30T02:26:00.369Z,98589.16
2022-07-30T02:28:10.075Z,98580.81
2022-07-30T02:30:12.547Z,98583.25
2022-07-30T02:32:19.045Z,98578.88
2022-07-30T02:34:23.818Z,98580.47
2022-07-30T02:36:27.761Z,98571.84
2022-07-30T02:38:30.765Z,98573.78
2022-07-30T02:40:32.887Z,98574.63
2022-07-30T02:42:36.696Z,98572.97
2022-07-30T02:44:39.290Z,98575.75
2022-07-30T02:46:41.480Z,98570.53
2022-07-30T02:49:04.721Z,98565.78
2022-07-30T02:51:10.936Z,98563.00
2022-07-30T02:53:14.448Z,98570.19
2022-07-30T02:55:18.035Z,98568.56
2022-07-30T02:57:21.158Z,98571.03
2022-07-30T02:59:26.051Z,98571.03
2022-07-30T03:01:29.280Z,98565.28
2022-07-30T03:03:32.359Z,98558.59
2022-07-30T03:05:34.991Z,98567.75
2022-07-30T03:07:37.854Z,98570.69
2022-07-30T03:09:50.872Z,98559.91
2022-07-30T03:11:56.706Z,98565.47
2022-07-30T03:13:58.508Z,98565.13
2022-07-30T03:16:01.247Z,98566.78
2022-07-30T03:18:05.087Z,98567.59
2022-07-30T03:20:13.120Z,98561.72
2022-07-30T03:22:20.118Z,98571.34
2022-07-30T03:24:24.785Z,98577.72
2022-07-30T03:26:28.158Z,98572.47
2022-07-30T03:28:34.309Z,98568.91
2022-07-30T03:30:36.554Z,98571.34
2022-07-30T03:32:42.927Z,98572.16
2022-07-30T03:34:46.247Z,98574.59
2022-07-30T03:36:50.147Z,98572.16
2022-07-30T03:38:53.103Z,98574.94
2022-07-30T03:40:55.748Z,98578.53
2022-07-30T03:42:58.693Z,98581.31
2022-07-30T03:45:07.258Z,98581.63
2022-07-30T03:47:09.300Z,98574.94
2022-07-30T03:49:18.639Z,98577.72
2022-07-30T03:51:23.463Z,98578.38
2022-07-30T03:53:27.824Z,98577.25
2022-07-30T03:55:48.266Z,98582.28
2022-07-30T03:58:09.516Z,98581.47
2022-07-30T04:00:15.406Z,98587.03
2022-07-30T04:02:24.354Z,98589.81
2022-07-30T04:04:30.543Z,98586.22
2022-07-30T04:06:33.001Z,98589.81
2022-07-30T04:08:34.872Z,98591.75
2022-07-30T04:10:37.583Z,98599.75
2022-07-30T04:13:02.917Z,98607.25
2022-07-30T04:16:36.841Z,98605.66
2022-07-30T04:17:36.823Z,98610.72
2022-07-30T04:19:48.240Z,98615.09
2022-07-30T04:21:55.013Z,98612.34
2022-07-30T04:24:03.065Z,98615.09
2022-07-30T04:26:08.553Z,98618.22
2022-07-30T04:28:11.766Z,98630.16
2022-07-30T04:30:14.013Z,98632.94
2022-07-30T04:32:15.725Z,98640.44
2022-07-30T04:34:36.765Z,98639.63
2022-07-30T04:36:42.637Z,98645.66
2022-07-30T04:38:44.473Z,98641.56
2022-07-30T04:40:46.860Z,98643.53
2022-07-30T04:42:48.799Z,98645.16
2022-07-30T04:44:52.109Z,98649.91
2022-07-30T04:47:08.397Z,98644.69
2022-07-30T04:49:17.756Z,98645.81
2022-07-30T04:51:34.179Z,98648.09
2022-07-30T04:53:35.868Z,98646.97
2022-07-30T04:55:42.540Z,98643.03
2022-07-30T04:57:49.693Z,98653.31
2022-07-30T04:59:51.739Z,98658.88
2022-07-30T05:01:57.593Z,98665.25
2022-07-30T05:04:01.471Z,98660.19
2022-07-30T05:06:03.595Z,98658.56
2022-07-30T05:08:10.038Z,98664.13
2022-07-30T05:10:13.349Z,98676.03
2022-07-30T05:12:16.202Z,98670.16
2022-07-30T05:14:17.783Z,98670.16
2022-07-30T05:16:19.626Z,98674.88
2022-07-30T05:18:22.318Z,98674.06
2022-07-30T05:20:24.040Z,98676.34
2022-07-30T05:22:42.873Z,98673.09
2022-07-30T05:24:53.792Z,98666.69
2022-07-30T05:26:55.473Z,98667.53
2022-07-30T05:28:58.538Z,98669.19
2022-07-30T05:31:08.785Z,98667.53
2022-07-30T05:33:15.857Z,98663.63
2022-07-30T05:35:18.430Z,98661.34
2022-07-30T05:37:20.899Z,98662.16
2022-07-30T05:39:22.683Z,98664.59
2022-07-30T05:41:32.955Z,98671.81
2022-07-30T05:43:55.902Z,98671.81
2022-07-30T05:45:59.340Z,98679.47
2022-07-30T05:48:01.233Z,98679.47
2022-07-30T05:50:05.193Z,98674.44
2022-07-30T05:52:07.391Z,98675.22
2022-07-30T05:54:09.559Z,98673.75
2022-07-30T05:56:19.804Z,98682.09
2022-07-30T05:58:31.184Z,98686.50
2022-07-30T06:00:35.700Z,98680.94
2022-07-30T06:02:39.475Z,98682.59
2022-07-30T06:05:04.373Z,98679.81
2022-07-30T06:07:06.116Z,98687.00
2022-07-30T06:09:08.619Z,98690.09
2022-07-30T06:11:10.590Z,98693.03
2022-07-30T06:13:14.991Z,98695.50
2022-07-30T06:15:20.539Z,98685.38
2022-07-30T06:17:27.295Z,98686.03
2022-07-30T06:19:40.144Z,98689.00
2022-07-30T06:22:02.137Z,98691.09
2022-07-30T06:24:05.553Z,98688.84
2022-07-30T06:26:17.030Z,98686.88
2022-07-30T06:30:49.259Z,98674.28
2022-07-30T06:32:51.445Z,98683.28
2022-07-30T06:35:02.627Z,98673.50
2022-07-30T06:37:06.864Z,98683.50
2022-07-30T06:39:08.925Z,98670.22
2022-07-30T06:41:28.755Z,98674.31
2022-07-30T06:43:33.596Z,98667.91
2022-07-30T06:45:54.166Z,98676.06
2022-07-30T06:48:03.464Z,98677.06
2022-07-30T06:50:07.834Z,98679.19
2022-07-30T06:52:12.665Z,98683.56
2022-07-30T06:54:21.397Z,98688.47
2022-07-30T06:56:36.240Z,98677.19
2022-07-30T06:58:40.414Z,98677.50
2022-07-30T07:01:01.542Z,98672.09
2022-07-30T07:03:08.733Z,98664.81
2022-07-30T07:05:13.970Z,98666.56
2022-07-30T07:07:40.257Z,98661.91
2022-07-30T07:09:42.089Z,98665.13
2022-07-30T07:12:05.457Z,98669.16
2022-07-30T07:14:09.041Z,98669.59
2022-07-30T07:16:11.887Z,98672.34
2022-07-30T07:18:17.057Z,98673.28
2022-07-30T07:20:25.484Z,98678.66
2022-07-30T07:22:34.612Z,98675.19
2022-07-30T07:24:36.215Z,98686.16
2022-07-30T07:26:42.190Z,98682.22
2022-07-30T07:28:44.928Z,98679.75
2022-07-30T07:30:46.851Z,98679.44
2022-07-30T07:32:49.470Z,98672.88
2022-07-30T07:34:51.154Z,98684.03
2022-07-30T07:36:52.985Z,98682.41
2022-07-30T07:38:55.787Z,98680.78
2022-07-30T07:40:57.790Z,98686.34
2022-07-30T07:42:59.607Z,98692.75
2022-07-30T07:45:02.306Z,98685.66
2022-07-30T07:47:09.911Z,98689.59
2022-07-30T07:49:17.823Z,98692.06
2022-07-30T07:51:46.862Z,98693.00
2022-07-30T07:54:05.717Z,98695.94
2022-07-30T07:56:10.267Z,98697.34
2022-07-30T07:58:14.682Z,98689.97
2022-07-30T08:00:21.780Z,98693.69
2022-07-30T08:02:26.495Z,98699.75
2022-07-30T08:04:39.305Z,98691.88
2022-07-30T08:06:47.207Z,98701.88
2022-07-30T08:09:07.733Z,98698.78
2022-07-30T08:11:31.973Z,98697.94
2022-07-30T08:13:53.647Z,98705.50
2022-07-30T08:16:12.632Z,98712.38
2022-07-30T08:18:29.592Z,98704.00
2022-07-30T08:20:45.082Z,98709.09
2022-07-30T08:22:49.588Z,98706.59
2022-07-30T08:24:51.697Z,98717.47
2022-07-30T08:26:53.342Z,98708.44
2022-07-30T08:28:55.022Z,98713.25
2022-07-30T08:31:00.519Z,98727.38
2022-07-30T08:33:04.196Z,98713.00
2022-07-30T08:35:06.490Z,98719.00
2022-07-30T08:37:09.045Z,98718.88
2022-07-30T08:39:11.170Z,98721.47
2022-07-30T08:41:13.633Z,98720.59
2022-07-30T08:43:15.449Z,98723.63
2022-07-30T08:45:18.031Z,98725.50
2022-07-30T08:47:23.636Z,98726.09
2022-07-30T08:49:46.282Z,98717.13
2022-07-30T08:51:52.451Z,98733.34
2022-07-30T08:54:19.355Z,98733.13
2022-07-30T08:56:21.061Z,98732.44
2022-07-30T08:58:29.695Z,98735.78
2022-07-30T09:00:31.467Z,98735.34
2022-07-30T09:02:33.863Z,98738.88
2022-07-30T09:04:39.338Z,98739.34
2022-07-30T09:06:41.154Z,98730.84
2022-07-30T09:08:45.287Z,98743.75
2022-07-30T09:10:53.342Z,98744.78
2022-07-30T09:12:56.089Z,98740.03
2022-07-30T09:15:25.452Z,98744.44
2022-07-30T09:17:31.245Z,98746.53
2022-07-30T09:19:34.557Z,98748.28
2022-07-30T09:21:36.242Z,98746.50
2022-07-30T09:24:04.174Z,98748.72
2022-07-30T09:26:24.905Z,98750.13
2022-07-30T09:28:45.081Z,98748.59
2022-07-30T09:30:54.429Z,98745.81
2022-07-30T09:33:15.388Z,98742.56
2022-07-30T09:35:41.349Z,98745.72
2022-07-30T09:37:47.833Z,98741.84
2022-07-30T09:40:14.674Z,98750.56
2022-07-30T09:42:35.270Z,98745.31
2022-07-30T09:44:42.797Z,98742.19
2022-07-30T09:46:51.005Z,98744.59
2022-07-30T09:49:18.745Z,98746.75
2022-07-30T09:51:49.344Z,98735.94
2022-07-30T09:54:00.226Z,98735.94
2022-07-30T09:56:26.613Z,98738.69
2022-07-30T09:58:45.471Z,98740.31
2022-07-30T10:00:48.996Z,98737.06
2022-07-30T10:03:41.651Z,98750.25
2022-07-30T10:06:03.612Z,98738.53
2022-07-30T10:08:16.577Z,98735.19
2022-07-30T10:10:25.194Z,98734.34
2022-07-30T10:12:28.431Z,98731.06
2022-07-30T10:14:42.841Z,98733.72
2022-07-30T10:16:47.567Z,98732.31
2022-07-30T10:18:49.654Z,98737.66
2022-07-30T10:21:12.880Z,98726.94
2022-07-30T10:23:54.070Z,98723.47
2022-07-30T10:26:22.338Z,98728.50
2022-07-30T10:28:43.616Z,98723.97
2022-07-30T10:30:49.094Z,98727.03
2022-07-30T10:32:53.270Z,98719.72
2022-07-30T10:34:55.432Z,98708.72
2022-07-30T10:37:01.953Z,98708.16
2022-07-30T10:39:09.976Z,98708.78
2022-07-30T10:41:42.802Z,98703.78
2022-07-30T10:44:04.944Z,98711.25
2022-07-30T10:46:29.498Z,98708.22
2022-07-30T10:48:34.221Z,98715.25
2022-07-30T10:50:53.353Z,98706.97
2022-07-30T10:52:57.494Z,98706.38
2022-07-30T10:55:01.233Z,98703.28
2022-07-30T10:57:14.674Z,98706.25
2022-07-30T10:59:17.230Z,98707.13
2022-07-30T11:01:18.909Z,98701.59
2022-07-30T11:03:41.464Z,98694.84
2022-07-30T11:05:49.055Z,98701.38
2022-07-30T11:07:50.704Z,98694.22
2022-07-30T11:10:05.514Z,98696.63
2022-07-30T11:12:12.867Z,98701.50
2022-07-30T11:14:17.797Z,98691.88
2022-07-30T11:16:24.516Z,98710.44
2022-07-30T11:18:28.793Z,98701.97
2022-07-30T11:20:32.016Z,98697.91
2022-07-30T11:22:40.282Z,98695.03
2022-07-30T11:24:46.405Z,98699.03
2022-07-30T11:26:50.447Z,98698.97
2022-07-30T11:28:52.102Z,98694.16
2022-07-30T11:30:55.797Z,98694.97
2022-07-30T11:33:05.198Z,98690.63
2022-07-30T11:35:17.116Z,98694.34
2022-07-30T11:37:32.276Z,98690.03
2022-07-30T11:39:55.979Z,98688.88
2022-07-30T11:42:25.725Z,98690.19
2022-07-30T11:44:30.474Z,98686.22
2022-07-30T11:46:32.146Z,98676.59
2022-07-30T11:48:35.599Z,98687.13
2022-07-30T11:50:38.008Z,98684.34
2022-07-30T11:52:42.613Z,98689.25
2022-07-30T11:54:53.592Z,98684.84
2022-07-30T11:57:04.134Z,98699.41
2022-07-30T11:59:08.940Z,98699.44
2022-07-30T12:01:16.640Z,98694.63
2022-07-30T12:03:20.145Z,98690.19
2022-07-30T12:05:27.253Z,98694.28
2022-07-30T12:07:28.961Z,98689.88
2022-07-30T12:09:32.177Z,98683.84
2022-07-30T12:11:37.792Z,98690.34
2022-07-30T12:13:45.977Z,98685.13
2022-07-30T12:15:51.009Z,98686.34
2022-07-30T12:18:11.031Z,98679.53
2022-07-30T12:20:18.472Z,98674.31
2022-07-30T12:22:20.225Z,98678.78
2022-07-30T12:24:26.666Z,98675.16
2022-07-30T12:26:31.350Z,98681.63
2022-07-30T12:28:34.567Z,98683.25
2022-07-30T12:30:40.888Z,98675.97
2022-07-30T12:32:43.745Z,98670.28
2022-07-30T12:34:55.844Z,98676.72
2022-07-30T12:37:10.277Z,98669.78
2022-07-30T12:39:20.791Z,98676.25
2022-07-30T12:41:22.743Z,98669.81
2022-07-30T12:43:50.746Z,98673.81
2022-07-30T12:45:58.535Z,98679.81
2022-07-30T12:48:00.104Z,98670.09
2022-07-30T12:50:17.342Z,98676.50
2022-07-30T12:52:29.367Z,98683.69
2022-07-30T12:54:32.933Z,98674.72
2022-07-30T12:56:34.893Z,98676.69
2022-07-30T12:58:37.650Z,98670.97
2022-07-30T13:00:52.696Z,98667.28
2022-07-30T13:02:54.865Z,98665.59
2022-07-30T13:05:10.797Z,98669.47
2022-07-30T13:07:13.669Z,98668.59
2022-07-30T13:09:22.738Z,98664.91
2022-07-30T13:11:38.598Z,98681.41
2022-07-30T13:13:40.277Z,98666.84
2022-07-30T13:15:53.925Z,98667.16
2022-07-30T13:17:55.969Z,98676.31
2022-07-30T13:19:57.894Z,98675.41
2022-07-30T13:21:59.653Z,98675.72
2022-07-30T13:24:02.509Z,98671.59
2022-07-30T13:26:06.037Z,98683.97
2022-07-30T13:28:07.796Z,98679.47
2022-07-30T13:30:10.565Z,98695.03
2022-07-30T13:32:12.194Z,98689.56
2022-07-30T13:34:13.897Z,98695.44
2022-07-30T13:36:16.205Z,98698.09
2022-07-30T13:38:17.931Z,98693.09
2022-07-30T13:40:19.717Z,98695.34
2022-07-30T13:42:21.405Z,98685.19
2022-07-30T13:44:23.385Z,98692.22
2022-07-30T13:46:24.875Z,98686.44
2022-07-30T13:48:26.526Z,98687.53
2022-07-30T13:50:28.192Z,98683.72
2022-07-30T13:52:29.865Z,98682.03
2022-07-30T13:54:31.428Z,98681.09
2022-07-30T13:56:32.962Z,98672.56
2022-07-30T13:58:43.045Z,98672.84
2022-07-30T14:00:48.112Z,98673.16
2022-07-30T14:02:49.912Z,98669.00
2022-07-30T14:04:51.702Z,98672.56
2022-07-30T14:06:53.569Z,98668.88
2022-07-30T14:08:55.263Z,98665.56
2022-07-30T14:10:58.653Z,98666.69
2022-07-30T14:13:00.920Z,98663.00
2022-07-30T14:15:02.641Z,98666.53
2022-07-30T14:17:04.767Z,98660.91
2022-07-30T14:19:06.782Z,98660.47
2022-07-30T14:21:08.599Z,98658.50
2022-07-30T14:23:10.291Z,98657.66
2022-07-30T14:25:12.688Z,98652.06
2022-07-30T14:27:14.479Z,98649.75
2022-07-30T14:29:16.163Z,98655.47
2022-07-30T14:31:17.809Z,98655.06
2022-07-30T14:33:19.437Z,98652.34
2022-07-30T14:35:20.884Z,98648.31
2022-07-30T14:37:23.774Z,98651.13
2022-07-30T14:39:26.062Z,98655.59
2022-07-30T14:41:28.378Z,98666.38
2022-07-30T14:43:29.932Z,98674.00
2022-07-30T14:45:31.556Z,98674.34
2022-07-30T14:47:33.142Z,98676.28
2022-07-30T14:49:35.108Z,98676.22
2022-07-30T14:51:37.440Z,98688.97
2022-07-30T14:53:39.185Z,98695.22
2022-07-30T14:55:41.969Z,98695.91
2022-07-30T14:57:44.245Z,98697.72
2022-07-30T14:59:45.970Z,98701.28
2022-07-30T15:01:47.982Z,98703.66
2022-07-30T15:03:50.579Z,98701.94
2022-07-30T15:05:52.755Z,98711.50
2022-07-30T15:07:54.300Z,98710.97
2022-07-30T15:09:56.193Z,98715.66
2022-07-30T15:12:08.543Z,98710.34
2022-07-30T15:14:12.264Z,98713.09
2022-07-30T15:16:14.588Z,98706.13
2022-07-30T15:18:16.119Z,98711.22
2022-07-30T15:20:19.102Z,98710.31
2022-07-30T15:22:20.865Z,98713.03
2022-07-30T15:24:22.472Z,98718.19
2022-07-30T15:26:28.472Z,98714.50
2022-07-30T15:28:30.455Z,98724.00
2022-07-30T15:30:32.330Z,98729.53
2022-07-30T15:32:34.227Z,98727.44
2022-07-30T15:34:36.127Z,98726.13
2022-07-30T15:36:38.959Z,98719.22
2022-07-30T15:38:40.653Z,98725.09
2022-07-30T15:40:43.194Z,98725.47
2022-07-30T15:42:45.191Z,98727.47
2022-07-30T15:44:49.074Z,98725.84
2022-07-30T15:46:51.221Z,98727.75
2022-07-30T15:48:52.951Z,98726.41
2022-07-30T15:51:05.087Z,98732.63
2022-07-30T15:53:11.754Z,98726.94
2022-07-30T15:55:15.567Z,98714.91
2022-07-30T15:57:17.199Z,98725.69
2022-07-30T15:59:18.768Z,98720.31
2022-07-30T16:01:20.408Z,98719.06
2022-07-30T16:03:22.145Z,98727.81
2022-07-30T16:05:24.072Z,98722.91
2022-07-30T16:07:25.778Z,98719.22
2022-07-30T16:09:28.192Z,98720.75
2022-07-30T16:11:31.342Z,98724.72
2022-07-30T16:13:34.051Z,98727.44
2022-07-30T16:15:35.697Z,98721.75
2022-07-30T16:17:37.349Z,98730.06
2022-07-30T16:19:39.043Z,98726.78
2022-07-30T16:21:41.086Z,98727.53
2022-07-30T16:23:44.752Z,98728.25
2022-07-30T16:25:46.482Z,98718.56
2022-07-30T16:27:48.064Z,98732.94
2022-07-30T16:29:50.682Z,98732.47
2022-07-30T16:31:52.535Z,98722.47
2022-07-30T16:33:54.309Z,98739.16
2022-07-30T16:35:56.004Z,98731.13
2022-07-30T16:38:02.627Z,98727.84
2022-07-30T16:40:04.808Z,98733.44
2022-07-30T16:42:06.890Z,98737.44
2022-07-30T16:44:08.541Z,98731.03
2022-07-30T16:46:11.047Z,98728.09
2022-07-30T16:48:13.719Z,98729.28
2022-07-30T16:50:16.154Z,98734.44
2022-07-30T16:52:18.295Z,98737.25
2022-07-30T16:54:20.642Z,98736.75
2022-07-30T16:56:22.576Z,98735.50
2022-07-30T16:58:30.586Z,98741.09
2022-07-30T17:00:32.916Z,98740.53
2022-07-30T17:02:34.547Z,98743.78
2022-07-30T17:04:36.274Z,98737.72
2022-07-30T17:06:39.548Z,98741.56
2022-07-30T17:08:41.173Z,98737.50
2022-07-30T17:10:42.989Z,98743.47
2022-07-30T17:12:50.818Z,98735.91
2022-07-30T17:14:52.875Z,98741.50
2022-07-30T17:16:54.697Z,98742.66
2022-07-30T17:18:56.208Z,98744.63
2022-07-30T17:20:57.859Z,98748.97
2022-07-30T17:22:59.842Z,98743.34
2022-07-30T17:25:01.546Z,98743.34
2022-07-30T17:27:03.202Z,98746.16
2022-07-30T17:29:05.332Z,98745.00
2022-07-30T17:31:07.526Z,98742.56
2022-07-30T17:33:09.102Z,98748.16
2022-07-30T17:35:13.828Z,98741.28
2022-07-30T17:37:16.440Z,98743.63
2022-07-30T17:40:19.065Z,98747.16
2022-07-30T17:41:55.572Z,98753.91
2022-07-30T17:44:02.219Z,98749.00
2022-07-30T17:46:03.980Z,98744.13
2022-07-30T17:48:06.649Z,98748.91
2022-07-30T17:50:09.002Z,98747.63
2022-07-30T17:52:10.833Z,98752.75
2022-07-30T17:54:12.631Z,98758.34
2022-07-30T17:56:25.540Z,98759.88
2022-07-30T17:58:29.074Z,98756.63
2022-07-30T18:00:30.922Z,98762.09
2022-07-30T18:02:32.541Z,98756.50
2022-07-30T18:04:35.829Z,98759.69
2022-07-30T18:06:37.597Z,98760.03
2022-07-30T18:08:39.033Z,98757.56
2022-07-30T18:10:40.743Z,98761.06
2022-07-30T18:12:48.848Z,98755.47
2022-07-30T18:14:51.902Z,98761.44
2022-07-30T18:16:54.439Z,98764.94
2022-07-30T18:18:56.058Z,98760.88
2022-07-30T18:20:57.740Z,98766.13
2022-07-30T18:23:00.226Z,98767.16
2022-07-30T18:25:01.872Z,98769.63
2022-07-30T18:27:03.995Z,98767.03
2022-07-30T18:29:08.061Z,98777.41
2022-07-30T18:31:12.852Z,98772.88
2022-07-30T18:33:16.017Z,98776.50
2022-07-30T18:35:17.703Z,98775.22
2022-07-30T18:37:19.191Z,98779.84
2022-07-30T18:39:20.820Z,98777.44
2022-07-30T18:41:23.646Z,98781.75
2022-07-30T18:43:27.824Z,98790.00
2022-07-30T18:45:32.899Z,98787.91
2022-07-30T18:47:36.937Z,98792.22
2022-07-30T18:49:38.718Z,98789.31
2022-07-30T18:51:40.766Z,98790.81
2022-07-30T18:53:42.642Z,98789.09
2022-07-30T18:55:45.192Z,98794.56
2022-07-30T18:57:46.995Z,98796.44
2022-07-30T18:59:54.006Z,98793.50
2022-07-30T19:01:55.599Z,98794.19
2022-07-30T19:03:57.096Z,98794.09
2022-07-30T19:05:58.618Z,98795.94
2022-07-30T19:08:00.290Z,98805.00
2022-07-30T19:10:02.121Z,98803.22
2022-07-30T19:12:04.693Z,98797.53
2022-07-30T19:14:06.725Z,98797.41
2022-07-30T19:16:08.727Z,98796.09
2022-07-30T19:18:10.611Z,98801.91
2022-07-30T19:20:12.616Z,98810.53
2022-07-30T19:22:14.699Z,98808.78
2022-07-30T19:24:16.185Z,98809.81
2022-07-30T19:26:18.911Z,98805.25
2022-07-30T19:28:20.650Z,98817.81
2022-07-30T19:30:22.675Z,98812.06
2022-07-30T19:32:24.833Z,98820.66
2022-07-30T19:34:26.452Z,98820.06
2022-07-30T19:36:29.426Z,98814.69
2022-07-30T19:38:30.976Z,98809.63
2022-07-30T19:40:32.871Z,98816.56
2022-07-30T19:42:34.711Z,98822.84
2022-07-30T19:44:40.449Z,98821.44
2022-07-30T19:46:43.387Z,98818.03
2022-07-30T19:48:45.126Z,98826.59
2022-07-30T19:50:47.663Z,98820.41
2022-07-30T19:52:51.169Z,98823.41
2022-07-30T19:54:53.304Z,98822.78
2022-07-30T19:56:54.879Z,98831.03
2022-07-30T19:58:56.508Z,98831.22
2022-07-30T20:00:58.576Z,98828.63
2022-07-30T20:03:00.208Z,98828.81
2022-07-30T20:05:03.784Z,98831.81
2022-07-30T20:07:07.984Z,98848.03
2022-07-30T20:09:14.503Z,98837.06
2022-07-30T20:11:34.645Z,98844.81
2022-07-30T20:13:45.467Z,98842.53
2022-07-30T20:15:49.753Z,98846.69
2022-07-30T20:17:55.106Z,98844.41
2022-07-30T20:19:59.382Z,98843.44
2022-07-30T20:22:01.218Z,98853.13
2022-07-30T20:24:02.921Z,98851.34
2022-07-30T20:26:12.535Z,98851.88
2022-07-30T20:28:14.676Z,98850.41
2022-07-30T20:30:25.294Z,98864.53
2022-07-30T20:32:27.140Z,98865.84
2022-07-30T20:34:30.803Z,98856.84
2022-07-30T20:36:35.036Z,98864.22
2022-07-30T20:38:38.779Z,98861.59
2022-07-30T20:40:41.582Z,98861.78
2022-07-30T20:42:46.386Z,98865.06
2022-07-30T20:44:49.532Z,98860.50
2022-07-30T20:46:52.923Z,98859.84
2022-07-30T20:48:54.665Z,98859.69
2022-07-30T20:50:56.344Z,98861.00
2022-07-30T20:52:59.340Z,98850.84
2022-07-30T20:55:00.804Z,98856.91
2022-07-30T20:57:04.432Z,98861.53
2022-07-30T20:59:08.175Z,98866.09
2022-07-30T21:01:15.515Z,98862.34
2022-07-30T21:03:21.326Z,98858.84
2022-07-30T21:05:23.460Z,98857.06
2022-07-30T21:07:36.366Z,98852.47
2022-07-30T21:09:51.915Z,98859.00
2022-07-30T21:11:54.597Z,98857.53
2022-07-30T21:13:56.191Z,98857.34
2022-07-30T21:16:02.428Z,98865.53
2022-07-30T21:18:05.151Z,98865.38
2022-07-30T21:20:07.798Z,98858.81
2022-07-30T21:22:09.868Z,98852.59
2022-07-30T21:24:15.302Z,98857.16
2022-07-30T21:26:19.097Z,98855.69
2022-07-30T21:28:27.631Z,98855.50
2022-07-30T21:30:30.378Z,98852.56
2022-07-30T21:32:31.971Z,98850.75
2022-07-30T21:34:35.889Z,98851.72
2022-07-30T21:36:43.576Z,98869.03
2022-07-30T21:38:45.145Z,98859.38
2022-07-30T21:40:46.851Z,98854.78
2022-07-30T21:42:49.228Z,98852.63
2022-07-30T21:44:51.714Z,98867.16
2022-07-30T21:46:55.682Z,98860.63
2022-07-30T21:48:59.387Z,98865.97
2022-07-30T21:51:01.166Z,98865.00
2022-07-30T21:53:03.092Z,98860.41
2022-07-30T21:55:05.235Z,98853.84
2022-07-30T21:57:06.922Z,98859.53
2022-07-30T21:59:08.565Z,98852.66
2022-07-30T22:01:18.051Z,98847.78
2022-07-30T22:04:03.307Z,98853.47
2022-07-30T22:05:43.500Z,98854.41
2022-07-30T22:07:45.381Z,98864.53
2022-07-30T22:09:50.260Z,98863.53
2022-07-30T22:11:52.266Z,98862.50
2022-07-30T22:13:53.792Z,98868.69
2022-07-30T22:15:55.934Z,98863.81
2022-07-30T22:20:21.963Z,98867.59
2022-07-30T22:22:27.349Z,98872.66
2022-07-30T22:24:31.349Z,98872.47
2022-07-30T22:26:33.231Z,98869.19
2022-07-30T22:28:34.846Z,98879.28
2022-07-30T22:30:39.061Z,98880.75
2022-07-30T22:32:41.326Z,98876.66
2022-07-30T22:34:44.842Z,98875.94
2022-07-30T22:36:46.575Z,98861.88
2022-07-30T22:38:59.190Z,98869.69
2022-07-30T22:41:01.555Z,98864.28
2022-07-30T22:43:07.596Z,98864.91
2022-07-30T22:45:09.687Z,98867.50
2022-07-30T22:47:18.648Z,98870.56
2022-07-30T22:49:23.432Z,98863.19
2022-07-30T22:51:58.739Z,98876.56
2022-07-30T22:54:11.044Z,98871.97
2022-07-30T22:56:15.518Z,98872.09
2022-07-30T22:58:17.297Z,98869.94
2022-07-30T23:00:27.982Z,98874.97
2022-07-30T23:02:30.169Z,98873.16
2022-07-30T23:04:31.849Z,98871.81
2022-07-30T23:06:34.927Z,98872.44
2022-07-30T23:08:36.547Z,98872.72
2022-07-30T23:10:38.169Z,98864.22
2022-07-30T23:12:28.557Z,98866.69
2022-07-30T23:12:42.054Z,98864.50
2022-07-30T23:14:43.932Z,98873.47
2022-07-30T23:16:50.130Z,98864.94
2022-07-30T23:18:52.797Z,98863.94
2022-07-30T23:20:59.926Z,98876.47
2022-07-30T23:23:03.001Z,98882.63
2022-07-30T23:25:06.727Z,98882.41
2022-07-30T23:27:14.182Z,98881.06
2022-07-30T23:29:15.917Z,98881.69
2022-07-30T23:31:17.551Z,98892.25
2022-07-30T23:33:19.348Z,98881.00
2022-07-30T23:35:21.766Z,98884.38
2022-07-30T23:37:23.418Z,98877.81
2022-07-30T23:39:24.980Z,98882.84
2022-07-30T23:41:29.860Z,98881.50
2022-07-30T23:43:33.335Z,98880.50
2022-07-30T23:45:34.914Z,98877.50
2022-07-30T23:47:52.960Z,98882.53
2022-07-30T23:49:59.889Z,98885.09
2022-07-30T23:52:01.556Z,98893.72
2022-07-30T23:54:03.509Z,98887.97
2022-07-30T23:56:05.011Z,98887.78
2022-07-30T23:58:06.661Z,98888.88
